Time;durP1;ratioP1;P1;durP2;ratioP2;P2;SDS_P1;SDS_P2;PMS_P1;PMS_P2;Temp;Humidity;BMP_temperature;BMP_pressure;BME280_temperature;BME280_humidity;BME280_pressure;Samples;Min_cycle;Max_cycle;Signal;HPM_P1;HPM_P2
2023/02/04 00:01:40;;;;;;;68.20;20.70;;;;;;;-0.55;100.00;100581.52;107370;1282;58198;-80
2023/02/04 00:04:06;;;;;;;74.60;22.70;;;;;;;-0.50;100.00;100583.20;107315;1280;58591;-80
2023/02/04 00:06:31;;;;;;;73.90;22.20;;;;;;;-0.44;100.00;100581.88;107320;1280;58313;-81
2023/02/04 00:08:57;;;;;;;79.50;23.90;;;;;;;-0.36;100.00;100578.66;106771;1280;58767;-80
2023/02/04 00:11:22;;;;;;;71.40;21.50;;;;;;;-0.29;100.00;100575.15;107388;1280;58198;-80
2023/02/04 00:13:47;;;;;;;79.00;23.10;;;;;;;-0.21;100.00;100567.28;106823;1280;74253;-80
2023/02/04 00:16:13;;;;;;;75.80;22.50;;;;;;;-0.15;100.00;100561.88;107347;1280;58243;-81
2023/02/04 00:18:38;;;;;;;75.10;24.30;;;;;;;-0.07;100.00;100558.41;106881;1280;58708;-81
2023/02/04 00:21:04;;;;;;;81.80;25.10;;;;;;;0.01;100.00;100561.13;107364;1280;58309;-80
2023/02/04 00:23:30;;;;;;;80.90;25.70;;;;;;;0.07;100.00;100558.44;107418;1280;58485;-81
2023/02/04 00:25:55;;;;;;;78.10;23.70;;;;;;;0.14;100.00;100557.92;107358;1280;73619;-81
2023/02/04 00:28:21;;;;;;;68.40;22.80;;;;;;;0.19;100.00;100554.94;107354;1280;58245;-81
2023/02/04 00:30:46;;;;;;;72.20;23.00;;;;;;;0.25;100.00;100552.83;107381;1280;58378;-80
2023/02/04 00:33:12;;;;;;;78.40;23.30;;;;;;;0.30;100.00;100551.91;107009;1280;58392;-81
2023/02/04 00:35:38;;;;;;;87.70;26.50;;;;;;;0.36;100.00;100549.92;107389;1280;58314;-81
2023/02/04 00:38:04;;;;;;;83.80;24.40;;;;;;;0.41;100.00;100551.06;107300;1282;61867;-81
2023/02/04 00:40:30;;;;;;;86.80;25.50;;;;;;;0.46;100.00;100551.46;107349;1280;60824;-81
2023/02/04 00:42:55;;;;;;;89.60;25.60;;;;;;;0.51;100.00;100551.23;107322;1280;58381;-81
2023/02/04 00:45:21;;;;;;;75.80;22.20;;;;;;;0.55;100.00;100548.53;107350;1280;58274;-81
2023/02/04 00:47:46;;;;;;;76.70;21.90;;;;;;;0.59;100.00;100542.67;107360;1279;58261;-81
2023/02/04 00:50:12;;;;;;;69.30;21.20;;;;;;;0.61;100.00;100541.46;107380;1280;58525;-81
2023/02/04 00:52:37;;;;;;;79.90;22.50;;;;;;;0.61;100.00;100538.94;107349;1280;58223;-81
2023/02/04 00:55:03;;;;;;;69.80;21.20;;;;;;;0.57;100.00;100537.28;107367;1280;58423;-81
2023/02/04 00:57:29;;;;;;;68.80;20.30;;;;;;;0.52;100.00;100530.52;107332;1280;58533;-81
2023/02/04 00:59:54;;;;;;;64.50;18.90;;;;;;;0.44;100.00;100529.02;107375;1280;58304;-81
2023/02/04 01:02:20;;;;;;;72.10;21.40;;;;;;;0.41;100.00;100532.23;107391;1280;58536;-81
2023/02/04 01:04:45;;;;;;;61.60;19.50;;;;;;;0.39;100.00;100534.12;107385;1280;58245;-81
2023/02/04 01:07:11;;;;;;;63.80;19.60;;;;;;;0.39;100.00;100537.10;107381;1280;58316;-81
2023/02/04 01:09:36;;;;;;;61.80;18.90;;;;;;;0.41;100.00;100536.20;107351;1280;59316;-81
2023/02/04 01:12:02;;;;;;;67.60;20.40;;;;;;;0.43;100.00;100533.20;107364;1280;58504;-81
2023/02/04 01:14:27;;;;;;;62.60;18.90;;;;;;;0.44;100.00;100532.61;107396;1280;70223;-81
2023/02/04 01:16:53;;;;;;;65.70;19.10;;;;;;;0.47;100.00;100528.91;107418;1280;58294;-81
2023/02/04 01:19:19;;;;;;;56.50;17.90;;;;;;;0.50;100.00;100528.17;107367;1280;58154;-81
2023/02/04 01:21:45;;;;;;;57.90;17.80;;;;;;;0.50;100.00;100524.97;107358;1280;58264;-81
2023/02/04 01:24:10;;;;;;;62.50;18.60;;;;;;;0.52;100.00;100529.14;107327;1280;58464;-81
2023/02/04 01:26:36;;;;;;;67.00;19.30;;;;;;;0.53;100.00;100526.54;107332;1280;58252;-80
2023/02/04 01:29:01;;;;;;;64.20;17.90;;;;;;;0.55;100.00;100526.46;107341;1280;58264;-81
2023/02/04 01:31:30;;;;;;;57.40;16.80;;;;;;;0.57;100.00;100526.31;107355;1280;58258;-81
2023/02/04 01:33:56;;;;;;;60.50;17.90;;;;;;;0.58;100.00;100526.23;106830;1280;74516;-81
2023/02/04 01:36:21;;;;;;;69.10;20.00;;;;;;;0.57;100.00;100525.42;107343;1280;58252;-81
2023/02/04 01:38:48;;;;;;;57.70;17.00;;;;;;;0.59;100.00;100520.28;106919;1280;58412;-81
2023/02/04 01:41:15;;;;;;;58.90;17.90;;;;;;;0.60;100.00;100523.27;107360;1280;58195;-81
2023/02/04 01:43:41;;;;;;;57.70;17.20;;;;;;;0.63;100.00;100521.70;106822;1280;58367;-81
2023/02/04 01:46:07;;;;;;;59.30;17.50;;;;;;;0.66;100.00;100521.42;107348;1280;58714;-81
2023/02/04 01:48:33;;;;;;;57.10;17.20;;;;;;;0.67;100.00;100524.40;107127;1280;58337;-81
2023/02/04 01:51:10;;;;;;;70.40;17.70;;;;;;;0.69;100.00;100520.25;106939;1280;58303;-81
2023/02/04 01:53:37;;;;;;;62.10;17.50;;;;;;;0.68;100.00;100517.87;107332;1280;60856;-81
2023/02/04 01:56:25;;;;;;;60.60;18.70;;;;;;;0.66;100.00;100517.80;106771;1285;61095;-81
2023/02/04 01:58:51;;;;;;;64.00;18.50;;;;;;;0.66;100.00;100518.20;106765;1285;73419;-81
2023/02/04 02:01:39;;;;;;;64.20;19.20;;;;;;;0.64;100.00;100518.19;106435;1286;58309;-81
2023/02/04 02:04:05;;;;;;;66.80;19.40;;;;;;;0.65;100.00;100515.98;106440;1285;72995;-81
2023/02/04 02:06:31;;;;;;;63.90;19.30;;;;;;;0.65;100.00;100517.83;106742;1285;58384;-81
2023/02/04 02:08:57;;;;;;;76.00;20.10;;;;;;;0.67;100.00;100518.04;106775;1285;58322;-81
2023/02/04 02:11:24;;;;;;;75.10;20.50;;;;;;;0.67;100.00;100519.38;106758;1285;58560;-81
2023/02/04 02:13:50;;;;;;;79.80;21.90;;;;;;;0.65;100.00;100519.98;106745;1285;58263;-81
2023/02/04 02:16:16;;;;;;;68.80;19.90;;;;;;;0.61;100.00;100519.20;106470;1285;58815;-82
2023/02/04 02:18:42;;;;;;;76.60;22.00;;;;;;;0.58;100.00;100524.12;106754;1285;58314;-81
2023/02/04 02:21:10;;;;;;;78.10;19.00;;;;;;;0.54;100.00;100526.26;106758;1285;58742;-81
2023/02/04 02:23:50;;;;;;;69.50;19.30;;;;;;;0.51;100.00;100526.11;106707;1285;59560;-81
2023/02/04 02:26:18;;;;;;;72.60;20.60;;;;;;;0.52;100.00;100527.18;106464;1280;74697;-81
2023/02/04 02:28:46;;;;;;;78.90;21.40;;;;;;;0.47;100.00;100526.74;107327;1280;73224;-81
2023/02/04 02:31:13;;;;;;;73.60;20.10;;;;;;;0.45;100.00;100532.32;107349;1280;61064;-81
2023/02/04 02:33:39;;;;;;;74.40;20.90;;;;;;;0.42;100.00;100532.31;106814;1280;61093;-81
2023/02/04 02:36:05;;;;;;;80.70;21.50;;;;;;;0.39;100.00;100534.98;107373;1280;58565;-81
2023/02/04 02:38:31;;;;;;;89.60;21.40;;;;;;;0.40;100.00;100534.91;107371;1280;58300;-81
2023/02/04 02:40:57;;;;;;;78.20;20.40;;;;;;;0.41;100.00;100534.45;107329;1280;58522;-81
2023/02/04 02:43:26;;;;;;;75.20;18.20;;;;;;;0.39;100.00;100535.02;107358;1280;58069;-81
2023/02/04 02:45:53;;;;;;;69.10;19.50;;;;;;;0.38;100.00;100536.89;107165;1280;58284;-80
2023/02/04 02:48:18;;;;;;;77.80;21.30;;;;;;;0.37;100.00;100536.30;107352;1280;74770;-81
2023/02/04 02:50:44;;;;;;;71.50;19.10;;;;;;;0.37;100.00;100536.93;107368;1280;58250;-81
2023/02/04 02:53:12;;;;;;;85.30;21.80;;;;;;;0.37;100.00;100539.85;107364;1280;58559;-81
2023/02/04 02:55:38;;;;;;;87.30;22.20;;;;;;;0.38;100.00;100536.19;107363;1280;58151;-81
2023/02/04 02:58:10;;;;;;;84.20;20.40;;;;;;;0.36;100.00;100536.60;106937;1280;58368;-81
2023/02/04 03:00:35;;;;;;;80.30;20.80;;;;;;;0.36;100.00;100535.23;107337;1280;74517;-81
2023/02/04 03:03:08;;;;;;;80.60;20.00;;;;;;;0.32;100.00;100533.63;107423;1280;58321;-81
2023/02/04 03:05:39;;;;;;;73.00;20.80;;;;;;;0.31;100.00;100534.80;106627;1280;72410;-81
2023/02/04 03:08:06;;;;;;;70.30;19.10;;;;;;;0.29;100.00;100536.98;107329;1280;60730;-81
2023/02/04 03:10:32;;;;;;;74.80;22.00;;;;;;;0.30;100.00;100532.84;107338;1280;58283;-81
2023/02/04 03:12:58;;;;;;;64.90;19.50;;;;;;;0.31;100.00;100529.38;107356;1281;58327;-81
2023/02/04 03:15:24;;;;;;;67.70;19.30;;;;;;;0.33;100.00;100536.37;107363;1280;58161;-81
2023/02/04 03:17:55;;;;;;;70.50;18.40;;;;;;;0.34;100.00;100535.48;107325;1280;58243;-81
2023/02/04 03:20:25;;;;;;;60.60;16.40;;;;;;;0.32;100.00;100538.73;106913;1280;62009;-81
2023/02/04 03:22:51;;;;;;;51.60;15.10;;;;;;;0.29;100.00;100536.41;107352;1280;60977;-81
2023/02/04 03:25:17;;;;;;;48.80;13.70;;;;;;;0.28;100.00;100532.01;107344;1280;58233;-81
2023/02/04 03:27:43;;;;;;;53.10;14.80;;;;;;;0.26;100.00;100529.46;107365;1280;58288;-81
2023/02/04 03:30:09;;;;;;;45.80;12.40;;;;;;;0.24;100.00;100529.86;107316;1280;58245;-81
2023/02/04 03:32:34;;;;;;;44.90;12.50;;;;;;;0.23;100.00;100528.74;107331;1280;58305;-82
2023/02/04 03:35:00;;;;;;;43.90;12.70;;;;;;;0.22;100.00;100529.73;107338;1280;58219;-81
2023/02/04 03:37:25;;;;;;;47.90;12.90;;;;;;;0.23;100.00;100526.27;107174;1282;58307;-82
2023/02/04 03:39:51;;;;;;;47.70;12.40;;;;;;;0.24;100.00;100523.55;107169;1281;59130;-81
2023/02/04 03:42:16;;;;;;;47.30;12.30;;;;;;;0.22;100.00;100522.42;107182;1281;58209;-82
2023/02/04 03:44:43;;;;;;;39.30;12.00;;;;;;;0.22;100.00;100518.40;107209;1281;58245;-82
2023/02/04 03:47:08;;;;;;;50.30;12.80;;;;;;;0.20;100.00;100521.03;106930;1282;58403;-81
2023/02/04 03:49:34;;;;;;;49.10;13.80;;;;;;;0.19;100.00;100516.90;107216;1281;58340;-81
2023/02/04 03:52:01;;;;;;;49.60;12.50;;;;;;;0.17;100.00;100522.81;107217;1281;61238;-81
2023/02/04 03:54:27;;;;;;;39.20;10.40;;;;;;;0.15;100.00;100525.19;107010;1282;58754;-81
2023/02/04 03:56:53;;;;;;;38.70;10.50;;;;;;;0.13;100.00;100520.69;106923;1282;58737;-80
2023/02/04 03:59:18;;;;;;;40.40;11.70;;;;;;;0.13;100.00;100521.55;107173;1281;58360;-80
2023/02/04 04:01:44;;;;;;;38.80;11.00;;;;;;;0.13;100.00;100523.84;107192;1281;58262;-80
2023/02/04 04:04:10;;;;;;;35.90;11.00;;;;;;;0.11;100.00;100521.77;107167;1281;58244;-80
2023/02/04 04:06:35;;;;;;;40.80;11.20;;;;;;;0.11;100.00;100526.76;107252;1281;58933;-80
2023/02/04 04:09:01;;;;;;;36.70;10.80;;;;;;;0.09;100.00;100524.33;106855;1282;73285;-80
2023/02/04 04:11:26;;;;;;;39.00;10.70;;;;;;;0.08;100.00;100519.80;107189;1281;58318;-79
2023/02/04 04:13:52;;;;;;;43.40;11.50;;;;;;;0.08;100.00;100522.00;106925;1282;58353;-79
2023/02/04 04:16:19;;;;;;;41.40;10.30;;;;;;;0.06;100.00;100521.67;107199;1281;58267;-80
2023/02/04 04:18:45;;;;;;;32.80;9.80;;;;;;;0.05;100.00;100521.26;107214;1281;58257;-79
2023/02/04 04:21:10;;;;;;;39.70;10.60;;;;;;;0.04;100.00;100518.92;107186;1281;58331;-80
2023/02/04 04:23:36;;;;;;;35.00;10.10;;;;;;;0.03;100.00;100521.16;106806;1282;59043;-79
2023/02/04 04:26:01;;;;;;;36.60;10.10;;;;;;;0.03;100.00;100519.45;107175;1281;58181;-79
2023/02/04 04:28:27;;;;;;;32.60;9.90;;;;;;;0.00;100.00;100520.48;106829;1282;58358;-80
2023/02/04 04:30:52;;;;;;;33.00;10.10;;;;;;;-0.00;100.00;100520.52;107201;1281;58290;-80
2023/02/04 04:33:18;;;;;;;34.20;10.00;;;;;;;-0.01;100.00;100521.27;106906;1282;58299;-80
2023/02/04 04:35:43;;;;;;;32.60;9.70;;;;;;;0.00;100.00;100520.15;107219;1281;58281;-79
2023/02/04 04:38:08;;;;;;;33.40;9.50;;;;;;;0.02;100.00;100517.36;107210;1281;58309;-79
2023/02/04 04:40:34;;;;;;;33.80;10.00;;;;;;;0.03;100.00;100518.71;107184;1281;58597;-79
2023/02/04 04:43:00;;;;;;;30.70;9.30;;;;;;;0.04;100.00;100520.51;106800;1282;58275;-79
2023/02/04 04:45:25;;;;;;;31.20;9.50;;;;;;;0.05;100.00;100517.61;107180;1281;58281;-79
2023/02/04 04:47:51;;;;;;;34.00;9.00;;;;;;;0.06;100.00;100516.97;107231;1281;58262;-79
2023/02/04 04:50:16;;;;;;;32.40;9.20;;;;;;;0.07;100.00;100522.52;107192;1281;58239;-79
2023/02/04 04:52:42;;;;;;;32.60;9.40;;;;;;;0.08;100.00;100524.81;107206;1281;58274;-79
2023/02/04 04:55:08;;;;;;;27.00;8.10;;;;;;;0.10;100.00;100524.86;107185;1281;58206;-79
2023/02/04 04:57:34;;;;;;;34.60;9.60;;;;;;;0.12;100.00;100530.64;107200;1281;58229;-79
2023/02/04 04:59:59;;;;;;;28.80;9.40;;;;;;;0.16;100.00;100528.55;107212;1281;58406;-79
2023/02/04 05:02:25;;;;;;;29.00;9.20;;;;;;;0.21;100.00;100528.17;107197;1281;58766;-80
2023/02/04 05:04:50;;;;;;;26.00;8.30;;;;;;;0.22;100.00;100527.73;107214;1281;58191;-79
2023/02/04 05:07:16;;;;;;;24.70;7.90;;;;;;;0.22;100.00;100533.05;107184;1281;59115;-79
2023/02/04 05:09:41;;;;;;;26.10;8.40;;;;;;;0.18;100.00;100532.03;107178;1281;59171;-79
2023/02/04 05:12:07;;;;;;;28.20;8.90;;;;;;;0.17;100.00;100536.16;107185;1281;59135;-79
2023/02/04 05:14:32;;;;;;;25.90;8.50;;;;;;;0.18;100.00;100540.02;107229;1281;59398;-79
2023/02/04 05:16:58;;;;;;;27.00;8.40;;;;;;;0.16;100.00;100543.42;107194;1281;59041;-79
2023/02/04 05:19:23;;;;;;;26.00;8.70;;;;;;;0.15;100.00;100547.34;107192;1281;59208;-79
2023/02/04 05:21:49;;;;;;;25.90;8.80;;;;;;;0.19;100.00;100548.17;107093;1282;59285;-80
2023/02/04 05:24:14;;;;;;;32.50;10.00;;;;;;;0.23;100.00;100552.44;107183;1281;59039;-79
2023/02/04 05:26:40;;;;;;;29.00;9.70;;;;;;;0.29;100.00;100552.24;107101;1282;59089;-79
2023/02/04 05:29:05;;;;;;;26.90;9.30;;;;;;;0.34;100.00;100555.73;107220;1281;59071;-79
2023/02/04 05:31:31;;;;;;;26.90;9.50;;;;;;;0.36;100.00;100556.48;107063;1282;59464;-79
2023/02/04 05:33:56;;;;;;;28.40;8.90;;;;;;;0.38;100.00;100556.21;107180;1281;59040;-79
2023/02/04 05:36:22;;;;;;;27.90;9.10;;;;;;;0.41;100.00;100557.68;107208;1280;60043;-79
2023/02/04 05:38:48;;;;;;;27.00;8.70;;;;;;;0.40;100.00;100557.29;107097;1280;59183;-79
2023/02/04 05:41:13;;;;;;;27.50;8.90;;;;;;;0.37;100.00;100559.96;107345;1280;73556;-79
2023/02/04 05:43:39;;;;;;;29.30;9.20;;;;;;;0.37;100.00;100560.73;107352;1280;59012;-79
2023/02/04 05:46:04;;;;;;;34.50;10.90;;;;;;;0.43;100.00;100567.70;107311;1280;59020;-79
2023/02/04 05:48:30;;;;;;;31.80;10.10;;;;;;;0.53;100.00;100573.89;107332;1280;59514;-79
2023/02/04 05:50:56;;;;;;;28.10;9.90;;;;;;;0.58;100.00;100577.27;107346;1280;58946;-79
2023/02/04 05:53:21;;;;;;;31.70;10.30;;;;;;;0.61;100.00;100578.88;107322;1280;59166;-79
2023/02/04 05:55:47;;;;;;;27.00;9.90;;;;;;;0.63;100.00;100578.65;107242;1280;59207;-80
2023/02/04 05:58:12;;;;;;;33.00;11.70;;;;;;;0.69;100.00;100579.48;107316;1280;59051;-79
2023/02/04 06:00:38;;;;;;;40.00;13.30;;;;;;;0.75;100.00;100581.08;107369;1280;59100;-79
2023/02/04 06:03:03;;;;;;;40.20;13.20;;;;;;;0.79;100.00;100584.50;107345;1280;59121;-79
2023/02/04 06:05:29;;;;;;;28.00;9.40;;;;;;;0.82;100.00;100582.34;107340;1280;58942;-79
2023/02/04 06:07:55;;;;;;;28.60;9.70;;;;;;;0.83;100.00;100585.48;107331;1280;60980;-79
2023/02/04 06:10:20;;;;;;;23.60;8.20;;;;;;;0.86;100.00;100582.20;107345;1280;59152;-79
2023/02/04 06:12:47;;;;;;;27.10;8.40;;;;;;;0.94;100.00;100582.35;107341;1280;59488;-79
2023/02/04 06:15:12;;;;;;;24.20;8.30;;;;;;;1.02;100.00;100582.91;107172;1280;59072;-79
2023/02/04 06:17:38;;;;;;;24.00;8.60;;;;;;;1.09;100.00;100584.79;107348;1280;58921;-79
2023/02/04 06:20:05;;;;;;;24.60;9.20;;;;;;;1.16;100.00;100586.00;107338;1280;59872;-79
2023/02/04 06:22:31;;;;;;;27.40;8.70;;;;;;;1.22;100.00;100589.30;107306;1282;59069;-80
2023/02/04 06:24:57;;;;;;;26.50;8.70;;;;;;;1.31;100.00;100590.52;106886;1280;59075;-80
2023/02/04 06:27:23;;;;;;;26.70;9.40;;;;;;;1.39;100.00;100591.06;107308;1280;60132;-79
2023/02/04 06:29:50;;;;;;;32.50;10.20;;;;;;;1.45;100.00;100596.36;107371;1282;59088;-80
2023/02/04 06:32:16;;;;;;;31.30;10.40;;;;;;;1.46;100.00;100599.67;107350;1280;59016;-80
2023/02/04 06:34:41;;;;;;;27.70;10.70;;;;;;;1.47;100.00;100601.34;107339;1280;59049;-80
2023/02/04 06:37:07;;;;;;;30.10;10.00;;;;;;;1.44;100.00;100601.38;107317;1280;59114;-81
2023/02/04 06:39:32;;;;;;;22.90;8.20;;;;;;;1.37;100.00;100607.70;107143;1282;59035;-80
2023/02/04 06:41:58;;;;;;;22.10;7.20;;;;;;;1.29;100.00;100615.92;107373;1280;59041;-80
2023/02/04 06:44:23;;;;;;;15.00;6.40;;;;;;;1.27;100.00;100613.45;107342;1280;73290;-80
2023/02/04 06:46:49;;;;;;;13.50;5.40;;;;;;;1.24;100.00;100614.79;106845;1283;59698;-80
2023/02/04 06:49:14;;;;;;;10.10;4.30;;;;;;;1.23;100.00;100617.11;107321;1280;58988;-80
2023/02/04 06:51:40;;;;;;;10.60;4.90;;;;;;;1.23;100.00;100615.89;107344;1280;59400;-80
2023/02/04 06:54:05;;;;;;;10.10;4.80;;;;;;;1.24;100.00;100615.29;107379;1280;59229;-80
2023/02/04 06:56:31;;;;;;;11.00;4.90;;;;;;;1.21;100.00;100620.73;107351;1280;58991;-80
2023/02/04 06:58:56;;;;;;;11.10;4.90;;;;;;;1.19;100.00;100625.63;107302;1280;59299;-80
2023/02/04 07:01:22;;;;;;;9.40;4.80;;;;;;;1.19;100.00;100629.52;107343;1280;59029;-81
2023/02/04 07:03:47;;;;;;;11.30;5.10;;;;;;;1.22;100.00;100632.30;107361;1280;59167;-80
2023/02/04 07:06:13;;;;;;;10.90;5.10;;;;;;;1.29;100.00;100637.11;107356;1280;59427;-80
2023/02/04 07:08:38;;;;;;;12.40;4.90;;;;;;;1.40;100.00;100638.88;107361;1280;62467;-79
2023/02/04 07:11:04;;;;;;;10.00;4.80;;;;;;;1.52;100.00;100636.09;107356;1280;59326;-80
2023/02/04 07:13:29;;;;;;;9.20;5.00;;;;;;;1.64;100.00;100640.66;107365;1280;59154;-80
2023/02/04 07:15:55;;;;;;;8.50;4.30;;;;;;;1.73;100.00;100638.45;107315;1280;59091;-81
2023/02/04 07:18:20;;;;;;;11.60;4.40;;;;;;;1.80;100.00;100639.84;107377;1280;59088;-80
2023/02/04 07:20:49;;;;;;;8.10;4.10;;;;;;;1.85;100.00;100642.02;107316;1280;59053;-80
2023/02/04 07:23:17;;;;;;;9.50;4.20;;;;;;;1.96;100.00;100643.41;107349;1280;75411;-80
2023/02/04 07:25:45;;;;;;;9.50;4.60;;;;;;;1.97;100.00;100648.35;107341;1280;74143;-80
2023/02/04 07:28:10;;;;;;;8.00;4.10;;;;;;;1.94;100.00;100651.85;107012;1280;73227;-80
2023/02/04 07:30:35;;;;;;;11.50;4.50;;;;;;;1.97;100.00;100653.87;106662;1285;59125;-80
2023/02/04 07:33:01;;;;;;;8.10;3.90;;;;;;;2.00;100.00;100652.81;106755;1285;59080;-81
2023/02/04 07:35:29;;;;;;;7.70;3.70;;;;;;;1.95;100.00;100656.64;106432;1285;59075;-80
2023/02/04 07:37:55;;;;;;;8.00;3.80;;;;;;;1.93;100.00;100661.91;106752;1285;59104;-80
2023/02/04 07:40:20;;;;;;;7.60;3.80;;;;;;;1.97;100.00;100661.97;106740;1285;59675;-80
2023/02/04 07:42:46;;;;;;;9.00;4.00;;;;;;;1.97;100.00;100661.27;106752;1285;59400;-80
2023/02/04 07:45:19;;;;;;;8.70;3.80;;;;;;;1.94;100.00;100664.17;106657;1285;59081;-80
2023/02/04 07:47:44;;;;;;;9.20;4.20;;;;;;;1.95;100.00;100666.34;106504;1285;74000;-80
2023/02/04 07:50:13;;;;;;;7.70;3.60;;;;;;;1.95;100.00;100671.87;106747;1285;59477;-80
2023/02/04 07:52:38;;;;;;;11.80;4.60;;;;;;;1.99;100.00;100668.34;106427;1285;59661;-81
2023/02/04 07:55:05;;;;;;;11.30;4.50;;;;;;;2.08;100.00;100672.81;106771;1285;59110;-80
2023/02/04 07:57:30;;;;;;;11.10;4.50;;;;;;;2.08;100.00;100672.77;106740;1285;59104;-80
2023/02/04 07:59:56;;;;;;;9.50;4.00;;;;;;;2.08;100.00;100668.73;106512;1288;59145;-80
2023/02/04 08:02:22;;;;;;;9.70;4.70;;;;;;;2.08;100.00;100667.87;107072;1281;59074;-80
2023/02/04 08:04:47;;;;;;;11.20;4.40;;;;;;;2.10;100.00;100670.28;107246;1282;59335;-79
2023/02/04 08:07:13;;;;;;;11.20;4.80;;;;;;;2.17;100.00;100668.83;107196;1282;75434;-80
2023/02/04 08:09:38;;;;;;;13.30;5.80;;;;;;;2.22;100.00;100672.73;107219;1282;59095;-80
2023/02/04 08:12:04;;;;;;;16.30;6.50;;;;;;;2.24;100.00;100679.23;107196;1281;59033;-81
2023/02/04 08:14:30;;;;;;;16.40;6.20;;;;;;;2.24;100.00;100680.80;107196;1280;59327;-80
2023/02/04 08:16:56;;;;;;;18.60;7.70;;;;;;;2.24;100.00;100683.56;107259;1281;59076;-80
2023/02/04 08:19:22;;;;;;;16.30;7.30;;;;;;;2.15;100.00;100684.85;107287;1280;59039;-80
2023/02/04 08:21:47;;;;;;;18.50;7.50;;;;;;;2.08;100.00;100688.19;107220;1281;73542;-80
2023/02/04 08:24:16;;;;;;;17.90;7.10;;;;;;;2.04;100.00;100694.98;107228;1282;58999;-81
2023/02/04 08:26:43;;;;;;;16.30;7.30;;;;;;;2.00;100.00;100695.45;107176;1281;61313;-80
2023/02/04 08:29:09;;;;;;;16.30;7.40;;;;;;;1.92;100.00;100696.86;106742;1282;73165;-80
2023/02/04 08:31:38;;;;;;;19.20;8.00;;;;;;;1.91;100.00;100701.39;107201;1283;59069;-80
2023/02/04 08:34:04;;;;;;;19.70;8.30;;;;;;;1.89;100.00;100705.48;106759;1283;73348;-80
2023/02/04 08:36:30;;;;;;;21.20;8.70;;;;;;;1.80;100.00;100703.13;107190;1280;61202;-80
2023/02/04 08:38:56;;;;;;;20.00;8.70;;;;;;;1.83;100.00;100712.54;107324;1280;59472;-80
2023/02/04 08:41:21;;;;;;;20.70;9.40;;;;;;;1.84;100.00;100710.25;107333;1280;59008;-80
2023/02/04 08:43:47;;;;;;;21.20;9.50;;;;;;;1.87;100.00;100712.95;107335;1280;59085;-80
2023/02/04 08:46:12;;;;;;;22.20;8.90;;;;;;;1.92;100.00;100714.12;107319;1283;59217;-80
2023/02/04 08:48:38;;;;;;;20.10;9.60;;;;;;;1.91;100.00;100710.96;107333;1280;60783;-80
2023/02/04 08:51:04;;;;;;;23.70;9.80;;;;;;;1.94;100.00;100714.70;107350;1280;59046;-80
2023/02/04 08:53:29;;;;;;;21.90;8.90;;;;;;;1.89;100.00;100712.72;107349;1281;59079;-81
2023/02/04 08:55:55;;;;;;;20.70;8.50;;;;;;;1.84;100.00;100712.67;107327;1280;59421;-81
2023/02/04 08:58:20;;;;;;;23.10;9.00;;;;;;;1.80;100.00;100710.84;107338;1282;59153;-83
2023/02/04 09:00:46;;;;;;;21.30;8.90;;;;;;;1.75;100.00;100707.23;107308;1281;74836;-80
2023/02/04 09:03:11;;;;;;;20.40;8.30;;;;;;;1.78;100.00;100705.65;107327;1281;59091;-80
2023/02/04 09:05:37;;;;;;;18.90;8.30;;;;;;;1.78;100.00;100706.02;107318;1281;59061;-80
2023/02/04 09:08:03;;;;;;;21.50;9.20;;;;;;;1.77;100.00;100704.79;107351;1280;59013;-81
2023/02/04 09:10:28;;;;;;;20.80;8.50;;;;;;;1.85;100.00;100705.99;107376;1280;59159;-81
2023/02/04 09:12:55;;;;;;;18.50;8.00;;;;;;;1.91;100.00;100704.99;106960;1280;59146;-81
2023/02/04 09:15:25;;;;;;;17.90;8.50;;;;;;;2.00;100.00;100707.19;107289;1283;72488;-81
2023/02/04 09:18:03;;;;;;;17.70;7.90;;;;;;;2.15;100.00;100703.38;107293;1283;60849;-80
2023/02/04 09:20:29;;;;;;;16.70;7.70;;;;;;;2.31;100.00;100701.73;107317;1280;61259;-80
2023/02/04 09:22:54;;;;;;;15.70;7.70;;;;;;;2.41;100.00;100697.20;107360;1283;59050;-81
2023/02/04 09:25:20;;;;;;;18.50;7.60;;;;;;;2.56;100.00;100697.37;107172;1280;59098;-81
2023/02/04 09:27:45;;;;;;;17.80;7.90;;;;;;;2.60;100.00;100693.14;107295;1283;59067;-81
2023/02/04 09:30:11;;;;;;;17.10;7.40;;;;;;;2.75;100.00;100692.66;107330;1280;59034;-82
2023/02/04 09:32:37;;;;;;;18.40;6.80;;;;;;;2.94;100.00;100690.71;107343;1283;75449;-82
2023/02/04 09:35:02;;;;;;;12.70;6.50;;;;;;;3.12;100.00;100685.73;107342;1282;59160;-82
2023/02/04 09:37:28;;;;;;;15.30;6.80;;;;;;;3.38;100.00;100688.20;107298;1280;59049;-82
2023/02/04 09:39:53;;;;;;;13.90;6.50;;;;;;;3.65;100.00;100697.27;106883;1281;59061;-82
2023/02/04 09:42:24;;;;;;;14.10;6.70;;;;;;;3.94;100.00;100702.55;107028;1284;59165;-82
2023/02/04 09:44:49;;;;;;;11.90;6.60;;;;;;;4.24;100.00;100704.36;107351;1281;74218;-82
2023/02/04 09:47:20;;;;;;;13.10;6.50;;;;;;;4.60;100.00;100701.76;106797;1282;59189;-82
2023/02/04 09:49:46;;;;;;;15.00;6.90;;;;;;;4.80;100.00;100700.67;107318;1283;61740;-82
2023/02/04 09:52:15;;;;;;;11.00;5.90;;;;;;;5.05;100.00;100705.08;107342;1281;59034;-82
2023/02/04 09:54:41;;;;;;;12.10;6.30;;;;;;;5.07;100.00;100708.45;107316;1283;75656;-82
2023/02/04 09:57:16;;;;;;;12.10;6.20;;;;;;;4.87;100.00;100715.11;107322;1280;59048;-82
2023/02/04 09:59:43;;;;;;;9.70;5.50;;;;;;;4.77;100.00;100711.80;107297;1283;72540;-82
2023/02/04 10:02:35;;;;;;;12.60;6.80;;;;;;;4.69;100.00;100709.45;107348;1282;60816;-82
2023/02/04 10:05:01;;;;;;;12.00;6.20;;;;;;;4.48;100.00;100702.34;106503;1289;59113;-84
2023/02/04 10:07:27;;;;;;;12.80;6.60;;;;;;;4.22;100.00;100709.41;106567;1287;59090;-83
2023/02/04 10:09:54;;;;;;;11.40;6.10;;;;;;;4.15;100.00;100709.34;106474;1288;59073;-82
2023/02/04 10:12:20;;;;;;;11.90;6.10;;;;;;;4.10;100.00;100710.97;106481;1288;59086;-84
2023/02/04 10:14:46;;;;;;;13.40;6.10;;;;;;;4.10;100.00;100710.18;106475;1287;59026;-83
2023/02/04 10:17:16;;;;;;;11.60;5.70;;;;;;;4.13;100.00;100711.27;106424;1288;206696;-82
2023/02/04 10:19:42;;;;;;;13.30;6.30;;;;;;;4.05;100.00;100712.30;106469;1288;75507;-82
2023/02/04 10:22:17;;;;;;;12.20;6.30;;;;;;;3.91;100.00;100711.23;106519;1288;59141;-83
2023/02/04 10:24:42;;;;;;;11.10;5.20;;;;;;;3.82;100.00;100709.66;106478;1288;72337;-83
2023/02/04 10:27:14;;;;;;;11.90;5.80;;;;;;;3.74;100.00;100711.89;106517;1288;59068;-82
2023/02/04 10:29:41;;;;;;;13.10;6.20;;;;;;;3.70;100.00;100713.70;106511;1288;61883;-83
2023/02/04 10:32:30;;;;;;;12.10;6.00;;;;;;;3.74;100.00;100717.38;106537;1288;75442;-83
2023/02/04 10:35:01;;;;;;;11.80;5.90;;;;;;;3.65;100.00;100719.95;106211;1289;73241;-83
2023/02/04 10:37:26;;;;;;;12.00;6.00;;;;;;;3.45;100.00;100718.51;106485;1288;72563;-84
2023/02/04 10:39:53;;;;;;;10.80;5.90;;;;;;;3.23;100.00;100720.93;106507;1288;59196;-84
2023/02/04 10:42:24;;;;;;;13.10;6.20;;;;;;;3.16;100.00;100719.52;106973;1280;59089;-85
2023/02/04 10:44:50;;;;;;;13.10;6.10;;;;;;;3.19;100.00;100715.83;106830;1280;74387;-85
2023/02/04 10:47:22;;;;;;;12.10;5.80;;;;;;;3.22;100.00;100722.01;107158;1280;59213;-85
2023/02/04 10:50:14;;;;;;;12.20;6.00;;;;;;;3.30;100.00;100717.14;107332;1280;72698;-84
2023/02/04 10:52:46;;;;;;;11.60;6.20;;;;;;;3.38;100.00;100722.61;107052;1280;61305;-84
2023/02/04 10:55:18;;;;;;;11.40;6.00;;;;;;;3.27;100.00;100722.73;107304;1280;59985;-84
2023/02/04 10:57:46;;;;;;;11.70;5.90;;;;;;;3.25;100.00;100730.77;107343;1280;74457;-84
2023/02/04 11:00:24;;;;;;;12.90;6.30;;;;;;;3.30;100.00;100732.60;107327;1280;74280;-84
2023/02/04 11:03:02;;;;;;;14.50;6.70;;;;;;;3.31;100.00;100736.04;107306;1280;72552;-84
2023/02/04 11:05:35;;;;;;;16.30;6.90;;;;;;;3.30;100.00;100736.36;107317;1280;60952;-84